sensor_id;sensor_type;location;lat;lon;timestamp;temperature;humidity
68801;SHT31;55784;50.734;7.086;2023-07-08T00:01:15;20.40;62.87
68801;SHT31;55784;50.734;7.086;2023-07-08T00:03:41;20.36;63.18
68801;SHT31;55784;50.734;7.086;2023-07-08T00:06:13;20.36;63.34
68801;SHT31;55784;50.734;7.086;2023-07-08T00:08:38;20.36;63.29
68801;SHT31;55784;50.734;7.086;2023-07-08T00:11:11;20.39;63.37
68801;SHT31;55784;50.734;7.086;2023-07-08T00:13:36;20.40;63.50
68801;SHT31;55784;50.734;7.086;2023-07-08T00:16:01;20.39;63.60
68801;SHT31;55784;50.734;7.086;2023-07-08T00:18:27;20.35;63.71
68801;SHT31;55784;50.734;7.086;2023-07-08T00:20:52;20.32;63.87
68801;SHT31;55784;50.734;7.086;2023-07-08T00:23:17;20.35;64.17
68801;SHT31;55784;50.734;7.086;2023-07-08T00:25:47;20.36;64.11
68801;SHT31;55784;50.734;7.086;2023-07-08T00:28:17;20.30;64.03
68801;SHT31;55784;50.734;7.086;2023-07-08T00:30:43;20.32;64.18
68801;SHT31;55784;50.734;7.086;2023-07-08T00:33:09;20.35;64.29
68801;SHT31;55784;50.734;7.086;2023-07-08T00:35:39;20.33;64.36
68801;SHT31;55784;50.734;7.086;2023-07-08T00:38:16;20.32;64.41
68801;SHT31;55784;50.734;7.086;2023-07-08T00:41:11;20.25;64.63
68801;SHT31;55784;50.734;7.086;2023-07-08T00:43:43;20.21;64.68
68801;SHT31;55784;50.734;7.086;2023-07-08T00:51:37;20.15;64.88
68801;SHT31;55784;50.734;7.086;2023-07-08T00:54:11;20.06;65.16
68801;SHT31;55784;50.734;7.086;2023-07-08T00:56:49;20.05;65.41
68801;SHT31;55784;50.734;7.086;2023-07-08T00:59:46;19.99;65.65
68801;SHT31;55784;50.734;7.086;2023-07-08T01:02:15;19.95;65.70
68801;SHT31;55784;50.734;7.086;2023-07-08T01:07:30;19.92;65.66
68801;SHT31;55784;50.734;7.086;2023-07-08T01:10:04;19.92;65.53
68801;SHT31;55784;50.734;7.086;2023-07-08T01:12:35;19.89;65.70
68801;SHT31;55784;50.734;7.086;2023-07-08T01:15:02;19.92;65.81
68801;SHT31;55784;50.734;7.086;2023-07-08T01:17:28;19.98;65.58
68801;SHT31;55784;50.734;7.086;2023-07-08T01:20:02;19.96;65.55
68801;SHT31;55784;50.734;7.086;2023-07-08T01:22:39;19.95;65.44
68801;SHT31;55784;50.734;7.086;2023-07-08T01:25:06;19.91;65.71
68801;SHT31;55784;50.734;7.086;2023-07-08T01:27:36;19.89;65.98
68801;SHT31;55784;50.734;7.086;2023-07-08T01:30:04;19.83;66.00
68801;SHT31;55784;50.734;7.086;2023-07-08T01:32:31;19.78;66.06
68801;SHT31;55784;50.734;7.086;2023-07-08T01:34:59;19.74;66.18
68801;SHT31;55784;50.734;7.086;2023-07-08T01:37:33;19.78;66.27
68801;SHT31;55784;50.734;7.086;2023-07-08T01:40:34;19.72;66.16
68801;SHT31;55784;50.734;7.086;2023-07-08T01:42:59;19.67;66.25
68801;SHT31;55784;50.734;7.086;2023-07-08T01:45:28;19.60;66.22
68801;SHT31;55784;50.734;7.086;2023-07-08T01:48:03;19.53;66.39
68801;SHT31;55784;50.734;7.086;2023-07-08T01:50:31;19.50;66.59
68801;SHT31;55784;50.734;7.086;2023-07-08T01:52:59;19.44;66.72
68801;SHT31;55784;50.734;7.086;2023-07-08T01:55:26;19.34;66.76
68801;SHT31;55784;50.734;7.086;2023-07-08T01:57:54;19.30;66.85
68801;SHT31;55784;50.734;7.086;2023-07-08T02:00:20;19.24;66.93
68801;SHT31;55784;50.734;7.086;2023-07-08T02:02:46;19.16;66.99
68801;SHT31;55784;50.734;7.086;2023-07-08T02:05:12;19.14;67.27
68801;SHT31;55784;50.734;7.086;2023-07-08T02:07:37;19.13;67.41
68801;SHT31;55784;50.734;7.086;2023-07-08T02:10:03;19.07;67.58
68801;SHT31;55784;50.734;7.086;2023-07-08T02:12:28;19.03;67.92
68801;SHT31;55784;50.734;7.086;2023-07-08T02:14:55;18.95;68.08
68801;SHT31;55784;50.734;7.086;2023-07-08T02:17:20;18.93;68.29
68801;SHT31;55784;50.734;7.086;2023-07-08T02:19:46;18.90;68.48
68801;SHT31;55784;50.734;7.086;2023-07-08T02:22:11;18.85;68.73
68801;SHT31;55784;50.734;7.086;2023-07-08T02:24:36;18.82;68.96
68801;SHT31;55784;50.734;7.086;2023-07-08T02:27:02;18.82;69.55
68801;SHT31;55784;50.734;7.086;2023-07-08T02:29:27;18.75;69.67
68801;SHT31;55784;50.734;7.086;2023-07-08T02:31:52;18.76;69.86
68801;SHT31;55784;50.734;7.086;2023-07-08T02:34:18;18.68;70.21
68801;SHT31;55784;50.734;7.086;2023-07-08T02:36:43;18.63;70.63
68801;SHT31;55784;50.734;7.086;2023-07-08T02:39:09;18.60;70.57
68801;SHT31;55784;50.734;7.086;2023-07-08T02:41:35;18.58;70.86
68801;SHT31;55784;50.734;7.086;2023-07-08T02:44:00;18.56;70.99
68801;SHT31;55784;50.734;7.086;2023-07-08T02:46:25;18.51;71.29
68801;SHT31;55784;50.734;7.086;2023-07-08T02:48:51;18.51;71.70
68801;SHT31;55784;50.734;7.086;2023-07-08T02:51:16;18.51;71.95
68801;SHT31;55784;50.734;7.086;2023-07-08T02:53:41;18.56;71.69
68801;SHT31;55784;50.734;7.086;2023-07-08T02:56:06;18.55;71.73
68801;SHT31;55784;50.734;7.086;2023-07-08T02:58:32;18.52;71.67
68801;SHT31;55784;50.734;7.086;2023-07-08T03:00:57;18.48;71.71
68801;SHT31;55784;50.734;7.086;2023-07-08T03:03:26;18.46;71.60
68801;SHT31;55784;50.734;7.086;2023-07-08T03:05:59;18.44;71.67
68801;SHT31;55784;50.734;7.086;2023-07-08T03:08:25;18.39;71.49
68801;SHT31;55784;50.734;7.086;2023-07-08T03:11:03;18.36;71.33
68801;SHT31;55784;50.734;7.086;2023-07-08T03:13:29;18.38;71.01
68801;SHT31;55784;50.734;7.086;2023-07-08T03:15:55;18.39;70.97
68801;SHT31;55784;50.734;7.086;2023-07-08T03:18:21;18.36;71.14
68801;SHT31;55784;50.734;7.086;2023-07-08T03:20:49;18.38;71.23
68801;SHT31;55784;50.734;7.086;2023-07-08T03:23:14;18.41;71.40
68801;SHT31;55784;50.734;7.086;2023-07-08T03:25:40;18.42;71.14
68801;SHT31;55784;50.734;7.086;2023-07-08T03:28:06;18.42;70.97
68801;SHT31;55784;50.734;7.086;2023-07-08T03:30:32;18.41;71.07
68801;SHT31;55784;50.734;7.086;2023-07-08T03:32:58;18.44;70.96
68801;SHT31;55784;50.734;7.086;2023-07-08T03:35:24;18.42;70.91
68801;SHT31;55784;50.734;7.086;2023-07-08T03:37:50;18.45;70.86
68801;SHT31;55784;50.734;7.086;2023-07-08T03:40:15;18.48;70.79
68801;SHT31;55784;50.734;7.086;2023-07-08T03:42:40;18.55;70.84
68801;SHT31;55784;50.734;7.086;2023-07-08T03:45:06;18.59;70.81
68801;SHT31;55784;50.734;7.086;2023-07-08T03:47:32;18.70;70.78
68801;SHT31;55784;50.734;7.086;2023-07-08T03:49:57;18.76;70.64
68801;SHT31;55784;50.734;7.086;2023-07-08T03:52:22;18.77;70.39
68801;SHT31;55784;50.734;7.086;2023-07-08T03:54:47;18.83;70.24
68801;SHT31;55784;50.734;7.086;2023-07-08T03:57:13;18.87;70.15
68801;SHT31;55784;50.734;7.086;2023-07-08T03:59:38;18.95;70.24
68801;SHT31;55784;50.734;7.086;2023-07-08T04:02:04;18.95;70.26
68801;SHT31;55784;50.734;7.086;2023-07-08T04:04:29;19.02;70.28
68801;SHT31;55784;50.734;7.086;2023-07-08T04:06:55;19.03;70.28
68801;SHT31;55784;50.734;7.086;2023-07-08T04:09:20;19.07;70.16
68801;SHT31;55784;50.734;7.086;2023-07-08T04:11:45;19.07;70.09
68801;SHT31;55784;50.734;7.086;2023-07-08T04:14:11;19.10;70.09
68801;SHT31;55784;50.734;7.086;2023-07-08T04:16:57;19.17;70.11
68801;SHT31;55784;50.734;7.086;2023-07-08T04:19:24;19.23;69.94
68801;SHT31;55784;50.734;7.086;2023-07-08T04:21:50;19.27;69.88
68801;SHT31;55784;50.734;7.086;2023-07-08T04:24:17;19.30;69.94
68801;SHT31;55784;50.734;7.086;2023-07-08T04:26:43;19.40;69.78
68801;SHT31;55784;50.734;7.086;2023-07-08T04:29:22;19.62;69.29
68801;SHT31;55784;50.734;7.086;2023-07-08T04:31:48;19.71;68.84
68801;SHT31;55784;50.734;7.086;2023-07-08T04:34:15;19.88;68.32
68801;SHT31;55784;50.734;7.086;2023-07-08T04:36:41;20.12;67.66
68801;SHT31;55784;50.734;7.086;2023-07-08T04:39:08;20.35;67.12
68801;SHT31;55784;50.734;7.086;2023-07-08T04:41:35;20.77;65.93
68801;SHT31;55784;50.734;7.086;2023-07-08T04:44:06;21.14;64.65
68801;SHT31;55784;50.734;7.086;2023-07-08T04:46:36;21.17;64.14
68801;SHT31;55784;50.734;7.086;2023-07-08T04:49:05;21.04;64.25
68801;SHT31;55784;50.734;7.086;2023-07-08T04:51:31;21.47;63.74
68801;SHT31;55784;50.734;7.086;2023-07-08T04:53:56;22.12;62.18
68801;SHT31;55784;50.734;7.086;2023-07-08T04:56:21;22.70;60.57
68801;SHT31;55784;50.734;7.086;2023-07-08T04:58:48;22.87;59.95
68801;SHT31;55784;50.734;7.086;2023-07-08T05:01:14;23.22;58.97
68801;SHT31;55784;50.734;7.086;2023-07-08T05:03:39;23.38;58.68
68801;SHT31;55784;50.734;7.086;2023-07-08T05:06:04;23.25;58.70
68801;SHT31;55784;50.734;7.086;2023-07-08T05:08:29;23.45;58.30
68801;SHT31;55784;50.734;7.086;2023-07-08T05:10:55;23.90;56.83
68801;SHT31;55784;50.734;7.086;2023-07-08T05:13:20;24.43;55.72
68801;SHT31;55784;50.734;7.086;2023-07-08T05:15:48;24.98;54.70
68801;SHT31;55784;50.734;7.086;2023-07-08T05:18:13;25.39;53.60
68801;SHT31;55784;50.734;7.086;2023-07-08T05:20:38;25.56;52.52
68801;SHT31;55784;50.734;7.086;2023-07-08T05:23:04;25.69;52.07
68801;SHT31;55784;50.734;7.086;2023-07-08T05:25:31;25.62;51.99
68801;SHT31;55784;50.734;7.086;2023-07-08T05:27:57;24.94;52.77
68801;SHT31;55784;50.734;7.086;2023-07-08T05:30:22;24.37;54.12
68801;SHT31;55784;50.734;7.086;2023-07-08T05:32:48;24.13;55.06
68801;SHT31;55784;50.734;7.086;2023-07-08T05:35:13;24.12;55.57
68801;SHT31;55784;50.734;7.086;2023-07-08T05:37:38;24.03;55.86
68801;SHT31;55784;50.734;7.086;2023-07-08T05:40:06;23.95;56.40
68801;SHT31;55784;50.734;7.086;2023-07-08T05:42:32;23.86;56.64
68801;SHT31;55784;50.734;7.086;2023-07-08T05:44:57;23.69;56.58
68801;SHT31;55784;50.734;7.086;2023-07-08T05:47:22;23.73;56.70
68801;SHT31;55784;50.734;7.086;2023-07-08T05:49:48;23.70;56.87
68801;SHT31;55784;50.734;7.086;2023-07-08T05:52:13;24.06;56.51
68801;SHT31;55784;50.734;7.086;2023-07-08T05:54:39;24.60;55.08
68801;SHT31;55784;50.734;7.086;2023-07-08T05:57:06;25.26;53.72
68801;SHT31;55784;50.734;7.086;2023-07-08T05:59:33;25.86;52.22
68801;SHT31;55784;50.734;7.086;2023-07-08T06:01:59;26.23;50.49
68801;SHT31;55784;50.734;7.086;2023-07-08T06:04:24;26.37;49.61
68801;SHT31;55784;50.734;7.086;2023-07-08T06:06:49;26.43;49.79
68801;SHT31;55784;50.734;7.086;2023-07-08T06:09:15;26.65;49.17
68801;SHT31;55784;50.734;7.086;2023-07-08T06:11:40;26.99;48.59
68801;SHT31;55784;50.734;7.086;2023-07-08T06:14:05;27.27;48.04
68801;SHT31;55784;50.734;7.086;2023-07-08T06:16:31;27.33;47.43
68801;SHT31;55784;50.734;7.086;2023-07-08T06:18:56;27.66;46.78
68801;SHT31;55784;50.734;7.086;2023-07-08T06:21:23;27.90;46.26
68801;SHT31;55784;50.734;7.086;2023-07-08T06:23:49;27.96;45.88
68801;SHT31;55784;50.734;7.086;2023-07-08T06:26:14;28.05;45.78
68801;SHT31;55784;50.734;7.086;2023-07-08T06:28:39;28.15;45.68
68801;SHT31;55784;50.734;7.086;2023-07-08T06:31:05;28.11;45.99
68801;SHT31;55784;50.734;7.086;2023-07-08T06:33:30;27.90;46.31
68801;SHT31;55784;50.734;7.086;2023-07-08T06:35:55;27.90;46.03
68801;SHT31;55784;50.734;7.086;2023-07-08T06:38:20;28.02;45.77
68801;SHT31;55784;50.734;7.086;2023-07-08T06:40:46;28.18;45.42
68801;SHT31;55784;50.734;7.086;2023-07-08T06:43:11;28.12;45.33
68801;SHT31;55784;50.734;7.086;2023-07-08T06:45:36;28.08;45.31
68801;SHT31;55784;50.734;7.086;2023-07-08T06:48:02;27.71;45.93
68801;SHT31;55784;50.734;7.086;2023-07-08T06:50:27;27.10;46.55
68801;SHT31;55784;50.734;7.086;2023-07-08T06:52:52;26.98;47.12
68801;SHT31;55784;50.734;7.086;2023-07-08T06:55:18;26.55;47.66
68801;SHT31;55784;50.734;7.086;2023-07-08T06:57:43;26.44;47.96
68801;SHT31;55784;50.734;7.086;2023-07-08T07:00:10;26.24;48.46
68801;SHT31;55784;50.734;7.086;2023-07-08T07:02:37;26.21;48.48
68801;SHT31;55784;50.734;7.086;2023-07-08T07:05:03;26.28;48.91
68801;SHT31;55784;50.734;7.086;2023-07-08T07:07:29;26.27;48.80
68801;SHT31;55784;50.734;7.086;2023-07-08T07:09:55;26.40;48.62
68801;SHT31;55784;50.734;7.086;2023-07-08T07:12:21;26.56;48.43
68801;SHT31;55784;50.734;7.086;2023-07-08T07:14:46;26.76;48.27
68801;SHT31;55784;50.734;7.086;2023-07-08T07:17:12;26.86;47.91
68801;SHT31;55784;50.734;7.086;2023-07-08T07:19:37;26.92;47.65
68801;SHT31;55784;50.734;7.086;2023-07-08T07:22:03;26.94;47.23
68801;SHT31;55784;50.734;7.086;2023-07-08T07:24:28;26.94;47.14
68801;SHT31;55784;50.734;7.086;2023-07-08T07:26:54;26.92;47.47
68801;SHT31;55784;50.734;7.086;2023-07-08T07:29:21;26.92;47.41
68801;SHT31;55784;50.734;7.086;2023-07-08T07:31:47;26.92;47.28
68801;SHT31;55784;50.734;7.086;2023-07-08T07:34:12;27.07;46.45
68801;SHT31;55784;50.734;7.086;2023-07-08T07:36:39;27.09;45.80
68801;SHT31;55784;50.734;7.086;2023-07-08T07:39:04;27.10;45.21
68801;SHT31;55784;50.734;7.086;2023-07-08T07:41:30;27.16;45.39
68801;SHT31;55784;50.734;7.086;2023-07-08T07:43:55;27.15;45.05
68801;SHT31;55784;50.734;7.086;2023-07-08T07:46:21;27.13;45.37
68801;SHT31;55784;50.734;7.086;2023-07-08T07:48:47;27.20;45.03
68801;SHT31;55784;50.734;7.086;2023-07-08T07:51:12;27.15;44.91
68801;SHT31;55784;50.734;7.086;2023-07-08T07:53:38;27.22;45.35
68801;SHT31;55784;50.734;7.086;2023-07-08T07:56:03;27.20;44.52
68801;SHT31;55784;50.734;7.086;2023-07-08T07:58:31;27.29;44.06
68801;SHT31;55784;50.734;7.086;2023-07-08T08:00:56;27.35;43.76
68801;SHT31;55784;50.734;7.086;2023-07-08T08:03:22;27.43;43.79
68801;SHT31;55784;50.734;7.086;2023-07-08T08:05:47;27.50;43.44
68801;SHT31;55784;50.734;7.086;2023-07-08T08:08:13;27.60;43.55
68801;SHT31;55784;50.734;7.086;2023-07-08T08:10:38;27.66;43.26
68801;SHT31;55784;50.734;7.086;2023-07-08T08:13:03;27.68;43.22
68801;SHT31;55784;50.734;7.086;2023-07-08T08:15:29;27.68;43.17
68801;SHT31;55784;50.734;7.086;2023-07-08T08:17:55;27.76;43.24
68801;SHT31;55784;50.734;7.086;2023-07-08T08:20:22;27.78;43.20
68801;SHT31;55784;50.734;7.086;2023-07-08T08:22:47;27.80;43.20
68801;SHT31;55784;50.734;7.086;2023-07-08T08:25:14;27.83;43.05
68801;SHT31;55784;50.734;7.086;2023-07-08T08:27:40;27.91;43.43
68801;SHT31;55784;50.734;7.086;2023-07-08T08:30:06;28.02;43.29
68801;SHT31;55784;50.734;7.086;2023-07-08T08:32:32;28.07;42.95
68801;SHT31;55784;50.734;7.086;2023-07-08T08:34:58;28.22;42.99
68801;SHT31;55784;50.734;7.086;2023-07-08T08:37:23;28.31;43.12
68801;SHT31;55784;50.734;7.086;2023-07-08T08:39:48;28.34;43.03
68801;SHT31;55784;50.734;7.086;2023-07-08T08:42:28;28.44;42.61
68801;SHT31;55784;50.734;7.086;2023-07-08T08:44:56;28.53;42.74
68801;SHT31;55784;50.734;7.086;2023-07-08T08:47:35;28.63;42.62
68801;SHT31;55784;50.734;7.086;2023-07-08T08:50:13;28.68;42.54
68801;SHT31;55784;50.734;7.086;2023-07-08T08:52:44;28.83;41.71
68801;SHT31;55784;50.734;7.086;2023-07-08T08:55:13;28.91;42.02
68801;SHT31;55784;50.734;7.086;2023-07-08T08:58:40;29.02;41.82
68801;SHT31;55784;50.734;7.086;2023-07-08T09:00:52;29.09;42.18
68801;SHT31;55784;50.734;7.086;2023-07-08T09:03:37;29.16;41.68
68801;SHT31;55784;50.734;7.086;2023-07-08T09:06:19;29.26;41.69
68801;SHT31;55784;50.734;7.086;2023-07-08T09:08:45;29.27;41.34
68801;SHT31;55784;50.734;7.086;2023-07-08T09:13:49;29.43;41.87
68801;SHT31;55784;50.734;7.086;2023-07-08T09:16:35;29.50;41.72
68801;SHT31;55784;50.734;7.086;2023-07-08T09:19:09;29.54;41.89
68801;SHT31;55784;50.734;7.086;2023-07-08T09:21:48;29.61;41.36
68801;SHT31;55784;50.734;7.086;2023-07-08T09:24:19;29.70;41.58
68801;SHT31;55784;50.734;7.086;2023-07-08T09:26:46;29.70;41.47
68801;SHT31;55784;50.734;7.086;2023-07-08T09:29:13;29.80;41.39
68801;SHT31;55784;50.734;7.086;2023-07-08T09:31:39;29.91;41.03
68801;SHT31;55784;50.734;7.086;2023-07-08T09:34:19;30.00;41.24
68801;SHT31;55784;50.734;7.086;2023-07-08T09:36:47;29.97;41.31
68801;SHT31;55784;50.734;7.086;2023-07-08T09:39:17;30.02;41.52
68801;SHT31;55784;50.734;7.086;2023-07-08T09:41:46;30.06;41.20
68801;SHT31;55784;50.734;7.086;2023-07-08T09:44:21;30.09;40.87
68801;SHT31;55784;50.734;7.086;2023-07-08T09:46:48;30.16;41.11
68801;SHT31;55784;50.734;7.086;2023-07-08T09:51:48;30.19;45.29
68801;SHT31;55784;50.734;7.086;2023-07-08T09:54:16;30.19;43.52
68801;SHT31;55784;50.734;7.086;2023-07-08T09:56:44;30.18;41.65
68801;SHT31;55784;50.734;7.086;2023-07-08T09:59:13;30.22;42.32
68801;SHT31;55784;50.734;7.086;2023-07-08T10:01:42;30.18;43.32
68801;SHT31;55784;50.734;7.086;2023-07-08T10:04:08;30.15;42.45
68801;SHT31;55784;50.734;7.086;2023-07-08T10:06:34;30.21;42.89
68801;SHT31;55784;50.734;7.086;2023-07-08T10:09:04;30.18;42.39
68801;SHT31;55784;50.734;7.086;2023-07-08T10:11:36;30.22;42.27
68801;SHT31;55784;50.734;7.086;2023-07-08T10:14:08;30.26;42.72
68801;SHT31;55784;50.734;7.086;2023-07-08T10:16:36;30.25;41.52
68801;SHT31;55784;50.734;7.086;2023-07-08T10:19:09;30.28;42.49
68801;SHT31;55784;50.734;7.086;2023-07-08T10:26:59;30.36;41.58
68801;SHT31;55784;50.734;7.086;2023-07-08T10:29:36;30.46;42.42
68801;SHT31;55784;50.734;7.086;2023-07-08T10:35:02;30.53;42.36
68801;SHT31;55784;50.734;7.086;2023-07-08T10:37:46;30.56;42.42
68801;SHT31;55784;50.734;7.086;2023-07-08T10:45:35;30.70;41.38
68801;SHT31;55784;50.734;7.086;2023-07-08T10:53:41;30.89;41.35
68801;SHT31;55784;50.734;7.086;2023-07-08T10:56:15;30.86;41.08
68801;SHT31;55784;50.734;7.086;2023-07-08T10:59:06;30.96;41.20
68801;SHT31;55784;50.734;7.086;2023-07-08T11:01:44;31.01;41.27
68801;SHT31;55784;50.734;7.086;2023-07-08T11:04:27;30.97;40.70
68801;SHT31;55784;50.734;7.086;2023-07-08T11:07:00;30.96;40.87
68801;SHT31;55784;50.734;7.086;2023-07-08T11:09:33;30.93;40.35
68801;SHT31;55784;50.734;7.086;2023-07-08T11:12:26;30.91;41.17
68801;SHT31;55784;50.734;7.086;2023-07-08T11:22:49;31.34;40.82
68801;SHT31;55784;50.734;7.086;2023-07-08T11:25:19;31.29;40.79
68801;SHT31;55784;50.734;7.086;2023-07-08T11:27:46;31.34;39.83
68801;SHT31;55784;50.734;7.086;2023-07-08T11:30:16;31.40;40.08
68801;SHT31;55784;50.734;7.086;2023-07-08T11:32:44;31.50;40.92
68801;SHT31;55784;50.734;7.086;2023-07-08T11:35:20;31.61;39.92
68801;SHT31;55784;50.734;7.086;2023-07-08T11:37:46;31.62;41.22
68801;SHT31;55784;50.734;7.086;2023-07-08T11:40:22;31.57;40.55
68801;SHT31;55784;50.734;7.086;2023-07-08T11:42:50;31.70;40.39
68801;SHT31;55784;50.734;7.086;2023-07-08T11:47:48;31.78;39.79
68801;SHT31;55784;50.734;7.086;2023-07-08T11:53:06;31.91;39.34
68801;SHT31;55784;50.734;7.086;2023-07-08T11:55:44;32.06;39.08
68801;SHT31;55784;50.734;7.086;2023-07-08T11:58:32;32.11;38.85
68801;SHT31;55784;50.734;7.086;2023-07-08T12:01:23;32.16;38.59
68801;SHT31;55784;50.734;7.086;2023-07-08T12:04:30;32.22;40.32
68801;SHT31;55784;50.734;7.086;2023-07-08T12:07:19;32.19;38.95
68801;SHT31;55784;50.734;7.086;2023-07-08T12:10:10;32.11;39.04
68801;SHT31;55784;50.734;7.086;2023-07-08T12:12:37;32.19;38.67
68801;SHT31;55784;50.734;7.086;2023-07-08T12:15:14;32.25;38.76
68801;SHT31;55784;50.734;7.086;2023-07-08T12:17:41;32.25;39.45
68801;SHT31;55784;50.734;7.086;2023-07-08T12:20:17;32.31;38.57
68801;SHT31;55784;50.734;7.086;2023-07-08T12:22:42;32.40;38.06
68801;SHT31;55784;50.734;7.086;2023-07-08T12:25:14;32.42;38.86
68801;SHT31;55784;50.734;7.086;2023-07-08T12:27:41;32.56;37.66
68801;SHT31;55784;50.734;7.086;2023-07-08T12:30:10;32.55;37.99
68801;SHT31;55784;50.734;7.086;2023-07-08T12:32:36;32.53;38.82
68801;SHT31;55784;50.734;7.086;2023-07-08T12:35:01;32.46;38.07
68801;SHT31;55784;50.734;7.086;2023-07-08T12:37:30;32.51;38.31
68801;SHT31;55784;50.734;7.086;2023-07-08T12:39:57;32.44;38.43
68801;SHT31;55784;50.734;7.086;2023-07-08T12:42:29;32.51;38.32
68801;SHT31;55784;50.734;7.086;2023-07-08T12:44:55;32.52;38.86
68801;SHT31;55784;50.734;7.086;2023-07-08T12:47:20;32.55;38.22
68801;SHT31;55784;50.734;7.086;2023-07-08T12:49:46;32.55;38.42
68801;SHT31;55784;50.734;7.086;2023-07-08T12:52:22;32.55;38.07
68801;SHT31;55784;50.734;7.086;2023-07-08T12:54:48;32.73;38.18
68801;SHT31;55784;50.734;7.086;2023-07-08T12:57:18;32.77;38.34
68801;SHT31;55784;50.734;7.086;2023-07-08T12:59:44;32.77;37.48
68801;SHT31;55784;50.734;7.086;2023-07-08T13:02:19;32.83;37.62
68801;SHT31;55784;50.734;7.086;2023-07-08T13:04:47;32.91;38.13
68801;SHT31;55784;50.734;7.086;2023-07-08T13:07:28;32.93;37.91
68801;SHT31;55784;50.734;7.086;2023-07-08T13:09:56;32.96;38.28
68801;SHT31;55784;50.734;7.086;2023-07-08T13:12:22;32.97;38.74
68801;SHT31;55784;50.734;7.086;2023-07-08T13:14:48;32.99;37.51
68801;SHT31;55784;50.734;7.086;2023-07-08T13:17:15;33.03;38.02
68801;SHT31;55784;50.734;7.086;2023-07-08T13:19:42;33.07;37.87
68801;SHT31;55784;50.734;7.086;2023-07-08T13:22:19;33.14;37.75
68801;SHT31;55784;50.734;7.086;2023-07-08T13:24:46;33.20;37.94
68801;SHT31;55784;50.734;7.086;2023-07-08T13:27:22;33.23;38.23
68801;SHT31;55784;50.734;7.086;2023-07-08T13:29:47;33.28;37.73
68801;SHT31;55784;50.734;7.086;2023-07-08T13:32:13;33.34;37.09
68801;SHT31;55784;50.734;7.086;2023-07-08T13:34:40;33.41;37.39
68801;SHT31;55784;50.734;7.086;2023-07-08T13:37:10;33.44;36.99
68801;SHT31;55784;50.734;7.086;2023-07-08T13:39:37;33.51;36.88
68801;SHT31;55784;50.734;7.086;2023-07-08T13:42:03;33.59;36.57
68801;SHT31;55784;50.734;7.086;2023-07-08T13:44:31;33.72;36.59
68801;SHT31;55784;50.734;7.086;2023-07-08T13:46:58;33.75;36.54
68801;SHT31;55784;50.734;7.086;2023-07-08T13:49:40;33.75;36.96
68801;SHT31;55784;50.734;7.086;2023-07-08T13:52:15;33.74;37.22
68801;SHT31;55784;50.734;7.086;2023-07-08T13:55:01;33.78;37.77
68801;SHT31;55784;50.734;7.086;2023-07-08T13:57:38;33.78;37.77
68801;SHT31;55784;50.734;7.086;2023-07-08T14:00:05;33.79;37.03
68801;SHT31;55784;50.734;7.086;2023-07-08T14:02:33;33.82;37.38
68801;SHT31;55784;50.734;7.086;2023-07-08T14:04:59;33.91;37.72
68801;SHT31;55784;50.734;7.086;2023-07-08T14:07:28;33.96;37.48
68801;SHT31;55784;50.734;7.086;2023-07-08T14:09:53;33.92;36.85
68801;SHT31;55784;50.734;7.086;2023-07-08T14:12:20;34.06;37.01
68801;SHT31;55784;50.734;7.086;2023-07-08T14:14:45;34.08;37.30
68801;SHT31;55784;50.734;7.086;2023-07-08T14:17:13;34.12;37.48
68801;SHT31;55784;50.734;7.086;2023-07-08T14:19:40;34.13;37.04
68801;SHT31;55784;50.734;7.086;2023-07-08T14:24:36;34.28;37.59
68801;SHT31;55784;50.734;7.086;2023-07-08T14:27:02;34.33;37.44
68801;SHT31;55784;50.734;7.086;2023-07-08T14:29:27;34.38;37.00
68801;SHT31;55784;50.734;7.086;2023-07-08T14:31:53;34.49;37.04
68801;SHT31;55784;50.734;7.086;2023-07-08T14:34:25;34.56;37.06
68801;SHT31;55784;50.734;7.086;2023-07-08T14:36:52;34.66;37.18
68801;SHT31;55784;50.734;7.086;2023-07-08T14:39:18;34.69;37.46
68801;SHT31;55784;50.734;7.086;2023-07-08T14:41:46;34.76;36.76
68801;SHT31;55784;50.734;7.086;2023-07-08T14:44:19;34.87;36.81
68801;SHT31;55784;50.734;7.086;2023-07-08T14:46:45;34.87;36.63
68801;SHT31;55784;50.734;7.086;2023-07-08T14:49:22;34.94;36.69
68801;SHT31;55784;50.734;7.086;2023-07-08T14:51:48;35.00;37.00
68801;SHT31;55784;50.734;7.086;2023-07-08T14:54:13;35.07;36.47
68801;SHT31;55784;50.734;7.086;2023-07-08T14:56:40;35.14;36.38
68801;SHT31;55784;50.734;7.086;2023-07-08T14:59:06;35.21;37.07
68801;SHT31;55784;50.734;7.086;2023-07-08T15:01:31;35.18;36.28
68801;SHT31;55784;50.734;7.086;2023-07-08T15:03:57;35.28;36.28
68801;SHT31;55784;50.734;7.086;2023-07-08T15:06:23;35.08;36.66
68801;SHT31;55784;50.734;7.086;2023-07-08T15:08:49;34.90;37.17
68801;SHT31;55784;50.734;7.086;2023-07-08T15:11:15;34.70;37.24
68801;SHT31;55784;50.734;7.086;2023-07-08T15:13:42;34.46;37.90
68801;SHT31;55784;50.734;7.086;2023-07-08T15:16:14;34.26;37.69
68801;SHT31;55784;50.734;7.086;2023-07-08T15:18:40;34.09;38.29
68801;SHT31;55784;50.734;7.086;2023-07-08T15:21:10;33.98;38.31
68801;SHT31;55784;50.734;7.086;2023-07-08T15:23:36;33.94;38.49
68801;SHT31;55784;50.734;7.086;2023-07-08T15:26:01;33.88;38.85
68801;SHT31;55784;50.734;7.086;2023-07-08T15:28:41;33.85;38.99
68801;SHT31;55784;50.734;7.086;2023-07-08T15:31:13;33.91;38.21
68801;SHT31;55784;50.734;7.086;2023-07-08T15:33:39;34.02;38.51
68801;SHT31;55784;50.734;7.086;2023-07-08T15:36:04;34.13;38.06
68801;SHT31;55784;50.734;7.086;2023-07-08T15:38:30;34.26;38.15
68801;SHT31;55784;50.734;7.086;2023-07-08T15:40:55;34.35;38.05
68801;SHT31;55784;50.734;7.086;2023-07-08T15:43:20;34.47;38.18
68801;SHT31;55784;50.734;7.086;2023-07-08T15:45:46;34.66;37.84
68801;SHT31;55784;50.734;7.086;2023-07-08T15:48:17;34.77;37.73
68801;SHT31;55784;50.734;7.086;2023-07-08T15:50:42;34.83;37.48
68801;SHT31;55784;50.734;7.086;2023-07-08T15:53:08;34.87;37.66
68801;SHT31;55784;50.734;7.086;2023-07-08T15:55:37;34.87;37.62
68801;SHT31;55784;50.734;7.086;2023-07-08T15:58:26;34.80;37.43
68801;SHT31;55784;50.734;7.086;2023-07-08T16:00:52;34.61;37.95
68801;SHT31;55784;50.734;7.086;2023-07-08T16:03:28;34.45;38.41
68801;SHT31;55784;50.734;7.086;2023-07-08T16:05:55;34.32;38.87
68801;SHT31;55784;50.734;7.086;2023-07-08T16:08:21;34.20;39.53
68801;SHT31;55784;50.734;7.086;2023-07-08T16:11:17;34.01;40.64
68801;SHT31;55784;50.734;7.086;2023-07-08T16:13:44;33.81;41.15
68801;SHT31;55784;50.734;7.086;2023-07-08T16:16:11;33.58;42.84
68801;SHT31;55784;50.734;7.086;2023-07-08T16:18:37;33.59;41.16
68801;SHT31;55784;50.734;7.086;2023-07-08T16:21:03;33.64;40.81
68801;SHT31;55784;50.734;7.086;2023-07-08T16:23:28;33.61;41.00
68801;SHT31;55784;50.734;7.086;2023-07-08T16:25:54;33.48;40.02
68801;SHT31;55784;50.734;7.086;2023-07-08T16:28:27;33.45;40.77